createdAt,value
2023-02-19T00:01:25.689Z,3.52
2023-02-19T00:03:53.375Z,3.51
2023-02-19T00:06:19.788Z,3.53
2023-02-19T00:08:45.777Z,3.56
2023-02-19T00:11:13.358Z,3.56
2023-02-19T00:13:44.073Z,3.55
2023-02-19T00:16:18.771Z,3.58
2023-02-19T00:18:44.852Z,3.57
2023-02-19T00:21:11.567Z,3.57
2023-02-19T00:23:37.704Z,3.58
2023-02-19T00:26:17.684Z,3.62
2023-02-19T00:28:45.608Z,3.63
2023-02-19T00:31:14.466Z,3.64
2023-02-19T00:33:40.870Z,3.65
2023-02-19T00:36:07.210Z,3.65
2023-02-19T00:38:36.110Z,3.65
2023-02-19T00:41:18.239Z,3.65
2023-02-19T00:43:54.959Z,3.66
2023-02-19T00:46:28.416Z,3.69
2023-02-19T00:48:54.696Z,3.74
2023-02-19T00:51:24.165Z,3.76
2023-02-19T00:53:50.415Z,3.74
2023-02-19T00:56:16.758Z,3.74
2023-02-19T00:58:42.683Z,3.73
2023-02-19T01:01:09.471Z,3.72
2023-02-19T01:03:36.044Z,3.74
2023-02-19T01:06:02.296Z,3.73
2023-02-19T01:08:30.357Z,3.68
2023-02-19T01:10:59.019Z,3.62
2023-02-19T01:13:25.160Z,3.61
2023-02-19T01:15:51.167Z,3.59
2023-02-19T01:18:17.161Z,3.59
2023-02-19T01:20:43.854Z,3.59
2023-02-19T01:23:10.390Z,3.58
2023-02-19T01:25:40.303Z,3.58
2023-02-19T01:28:06.495Z,3.54
2023-02-19T01:30:36.561Z,3.48
2023-02-19T01:33:07.080Z,3.44
2023-02-19T01:35:33.589Z,3.46
2023-02-19T01:37:59.517Z,3.47
2023-02-19T01:40:26.109Z,3.51
2023-02-19T01:42:52.101Z,3.53
2023-02-19T01:45:31.266Z,3.56
2023-02-19T01:48:03.510Z,3.55
2023-02-19T01:50:32.586Z,3.55
2023-02-19T01:52:59.008Z,3.56
2023-02-19T01:55:24.913Z,3.60
2023-02-19T01:57:52.819Z,3.62
2023-02-19T02:00:18.783Z,3.63
2023-02-19T02:02:48.059Z,3.63
2023-02-19T02:05:24.944Z,3.64
2023-02-19T02:08:10.017Z,3.65
2023-02-19T02:10:35.936Z,3.66
2023-02-19T02:13:01.854Z,3.66
2023-02-19T02:15:34.190Z,3.69
2023-02-19T02:18:16.829Z,3.73
2023-02-19T02:21:03.571Z,3.76
2023-02-19T02:23:40.142Z,3.82
2023-02-19T02:26:15.433Z,3.85
2023-02-19T02:28:47.540Z,3.90
2023-02-19T02:31:16.058Z,3.94
2023-02-19T02:34:04.271Z,4.01
2023-02-19T02:36:35.369Z,4.07
2023-02-19T02:39:02.838Z,4.12
2023-02-19T02:41:28.891Z,4.16
2023-02-19T02:43:54.807Z,4.19
2023-02-19T02:46:27.880Z,4.18
2023-02-19T02:48:57.958Z,4.18
2023-02-19T02:51:29.373Z,4.15
2023-02-19T02:54:24.549Z,4.13
2023-02-19T02:56:50.770Z,4.09
2023-02-19T02:59:21.931Z,4.07
2023-02-19T03:02:13.386Z,4.08
2023-02-19T03:05:15.802Z,4.10
2023-02-19T03:08:05.568Z,4.13
2023-02-19T03:10:48.226Z,4.16
2023-02-19T03:13:53.467Z,4.20
2023-02-19T03:16:42.792Z,4.21
2023-02-19T03:19:20.067Z,4.22
2023-02-19T03:21:59.613Z,4.23
2023-02-19T03:24:48.951Z,4.23
2023-02-19T03:27:16.591Z,4.20
2023-02-19T03:29:45.647Z,4.19
2023-02-19T03:32:21.447Z,4.18
2023-02-19T03:35:08.792Z,4.18
2023-02-19T03:37:40.783Z,4.16
2023-02-19T03:40:07.493Z,4.11
2023-02-19T03:42:58.590Z,4.10
2023-02-19T03:45:34.994Z,4.14
2023-02-19T03:48:15.836Z,4.18
2023-02-19T03:50:51.544Z,4.22
2023-02-19T03:53:29.157Z,4.22
2023-02-19T03:56:08.405Z,4.20
2023-02-19T03:58:41.106Z,4.18
2023-02-19T04:01:14.350Z,4.18
2023-02-19T04:03:46.249Z,4.19
2023-02-19T04:06:14.022Z,4.22
2023-02-19T04:08:42.273Z,4.26
2023-02-19T04:11:08.623Z,4.29
2023-02-19T04:13:37.955Z,4.30
2023-02-19T04:16:07.221Z,4.29
2023-02-19T04:18:35.794Z,4.29
2023-02-19T04:21:01.751Z,4.30
2023-02-19T04:23:27.933Z,4.31
2023-02-19T04:25:55.744Z,4.30
2023-02-19T04:28:21.704Z,4.30
2023-02-19T04:30:47.657Z,4.30
2023-02-19T04:33:13.618Z,4.27
2023-02-19T04:35:39.709Z,4.24
2023-02-19T04:38:05.719Z,4.26
2023-02-19T04:40:31.687Z,4.28
2023-02-19T04:42:57.616Z,4.30
2023-02-19T04:45:23.541Z,4.34
2023-02-19T04:47:49.607Z,4.36
2023-02-19T04:50:15.743Z,4.40
2023-02-19T04:52:41.706Z,4.43
2023-02-19T04:55:07.747Z,4.42
2023-02-19T04:57:34.320Z,4.40
2023-02-19T05:00:00.242Z,4.43
2023-02-19T05:02:26.209Z,4.44
2023-02-19T05:04:52.227Z,4.48
2023-02-19T05:07:18.311Z,4.51
2023-02-19T05:09:44.259Z,4.54
2023-02-19T05:12:10.177Z,4.56
2023-02-19T05:14:36.291Z,4.58
2023-02-19T05:17:02.256Z,4.60
2023-02-19T05:19:28.185Z,4.60
2023-02-19T05:21:54.153Z,4.60
2023-02-19T05:24:20.085Z,4.62
2023-02-19T05:26:47.641Z,4.64
2023-02-19T05:29:13.654Z,4.65
2023-02-19T05:31:39.758Z,4.62
2023-02-19T05:34:05.870Z,4.57
2023-02-19T05:36:32.058Z,4.50
2023-02-19T05:38:58.187Z,4.43
2023-02-19T05:41:25.706Z,4.36
2023-02-19T05:43:51.847Z,4.28
2023-02-19T05:46:20.974Z,4.19
2023-02-19T05:48:47.993Z,4.14
2023-02-19T05:51:15.996Z,4.10
2023-02-19T05:53:42.187Z,4.09
2023-02-19T05:56:42.387Z,4.03
2023-02-19T05:59:16.846Z,4.01
2023-02-19T06:01:42.861Z,3.99
2023-02-19T06:04:10.221Z,4.01
2023-02-19T06:06:36.767Z,4.01
2023-02-19T06:09:03.973Z,4.00
2023-02-19T06:11:29.877Z,4.02
2023-02-19T06:13:55.935Z,4.06
2023-02-19T06:16:22.222Z,4.10
2023-02-19T06:18:48.315Z,4.09
2023-02-19T06:21:14.782Z,4.10
2023-02-19T06:23:40.886Z,4.10
2023-02-19T06:26:09.671Z,4.07
2023-02-19T06:28:36.265Z,4.04
2023-02-19T06:31:02.766Z,4.00
2023-02-19T06:33:28.945Z,3.95
2023-02-19T06:35:57.447Z,3.91
2023-02-19T06:38:23.416Z,3.87
2023-02-19T06:40:49.326Z,3.85
2023-02-19T06:43:15.247Z,3.85
2023-02-19T06:45:41.329Z,3.85
2023-02-19T06:48:07.358Z,3.86
2023-02-19T06:50:33.284Z,3.83
2023-02-19T06:52:59.163Z,3.83
2023-02-19T06:55:25.069Z,3.85
2023-02-19T06:57:50.949Z,3.86
2023-02-19T07:00:17.347Z,3.81
2023-02-19T07:02:43.397Z,3.77
2023-02-19T07:05:09.359Z,3.71
2023-02-19T07:07:35.357Z,3.66
2023-02-19T07:10:01.240Z,3.66
2023-02-19T07:12:27.305Z,3.66
2023-02-19T07:14:53.304Z,3.65
2023-02-19T07:17:19.235Z,3.63
2023-02-19T07:19:45.125Z,3.62
2023-02-19T07:22:11.023Z,3.61
2023-02-19T07:24:36.993Z,3.59
2023-02-19T07:27:03.061Z,3.59
2023-02-19T07:29:28.967Z,3.62
2023-02-19T07:31:54.887Z,3.66
2023-02-19T07:34:20.831Z,3.67
2023-02-19T07:36:46.721Z,3.68
2023-02-19T07:39:14.993Z,3.71
2023-02-19T07:41:40.940Z,3.75
2023-02-19T07:44:06.835Z,3.76
2023-02-19T07:46:32.757Z,3.78
2023-02-19T07:48:59.076Z,3.81
2023-02-19T07:51:27.527Z,3.83
2023-02-19T07:53:53.468Z,3.86
2023-02-19T07:56:20.082Z,3.85
2023-02-19T07:58:46.003Z,3.88
2023-02-19T08:01:16.652Z,3.88
2023-02-19T08:03:42.815Z,3.90
2023-02-19T08:06:10.655Z,3.91
2023-02-19T08:08:40.026Z,3.90
2023-02-19T08:11:24.810Z,3.89
2023-02-19T08:13:51.388Z,3.94
2023-02-19T08:16:29.668Z,4.00
2023-02-19T08:18:59.524Z,4.05
2023-02-19T08:21:25.518Z,4.12
2023-02-19T08:23:51.515Z,4.17
2023-02-19T08:26:17.649Z,4.21
2023-02-19T08:28:43.597Z,4.21
2023-02-19T08:31:10.908Z,4.23
2023-02-19T08:33:37.588Z,4.21
2023-02-19T08:36:05.000Z,4.17
2023-02-19T08:38:32.155Z,4.21
2023-02-19T08:40:58.435Z,4.21
2023-02-19T08:43:24.401Z,4.20
2023-02-19T08:45:52.415Z,4.24
2023-02-19T08:48:18.303Z,4.31
2023-02-19T08:50:44.230Z,4.35
2023-02-19T08:53:10.193Z,4.39
2023-02-19T08:55:36.798Z,4.46
2023-02-19T08:58:02.731Z,4.48
2023-02-19T09:00:28.684Z,4.50
2023-02-19T09:02:57.037Z,4.49
2023-02-19T09:05:23.009Z,4.48
2023-02-19T09:07:49.042Z,4.46
2023-02-19T09:10:15.020Z,4.45
2023-02-19T09:12:41.074Z,4.46
2023-02-19T09:15:07.432Z,4.51
2023-02-19T09:17:33.378Z,4.52
2023-02-19T09:19:59.346Z,4.52
2023-02-19T09:22:25.338Z,4.49
2023-02-19T09:24:51.231Z,4.43
2023-02-19T09:27:18.240Z,4.36
2023-02-19T09:29:44.222Z,4.32
2023-02-19T09:32:10.602Z,4.25
2023-02-19T09:34:38.326Z,4.20
2023-02-19T09:37:05.056Z,4.22
2023-02-19T09:39:31.321Z,4.27
2023-02-19T09:42:00.886Z,4.37
2023-02-19T09:44:34.161Z,4.43
2023-02-19T09:47:00.759Z,4.52
2023-02-19T09:49:38.317Z,4.63
2023-02-19T09:52:12.049Z,4.70
2023-02-19T09:54:38.693Z,4.75
2023-02-19T09:57:04.812Z,4.84
2023-02-19T10:02:40.288Z,5.18
2023-02-19T10:05:13.078Z,5.07
2023-02-19T10:07:47.065Z,5.04
2023-02-19T10:10:12.947Z,5.05
2023-02-19T10:12:50.656Z,5.14
2023-02-19T10:15:30.418Z,5.35
2023-02-19T10:17:56.384Z,5.74
2023-02-19T10:20:24.185Z,6.05
2023-02-19T10:22:58.606Z,6.47
2023-02-19T10:25:24.522Z,6.81
2023-02-19T10:27:50.554Z,6.87
2023-02-19T10:30:22.330Z,6.74
2023-02-19T10:33:00.616Z,6.60
2023-02-19T10:35:26.648Z,6.49
2023-02-19T10:37:52.555Z,6.32
2023-02-19T10:40:23.530Z,6.14
2023-02-19T10:42:58.385Z,6.00
2023-02-19T10:45:34.609Z,5.83
2023-02-19T10:48:00.724Z,5.90
2023-02-19T10:50:30.741Z,6.04
2023-02-19T10:52:57.919Z,6.12
2023-02-19T10:55:31.341Z,6.22
2023-02-19T10:57:57.427Z,6.21
2023-02-19T11:00:29.624Z,6.09
2023-02-19T11:03:28.162Z,5.95
2023-02-19T11:06:00.681Z,5.76
2023-02-19T11:08:26.613Z,5.69
2023-02-19T11:10:52.699Z,5.56
2023-02-19T11:13:25.491Z,5.44
2023-02-19T11:15:52.903Z,5.42
2023-02-19T11:18:30.683Z,5.48
2023-02-19T11:20:57.834Z,5.49
2023-02-19T11:23:30.938Z,5.42
2023-02-19T11:26:02.732Z,5.34
2023-02-19T11:28:36.189Z,5.22
2023-02-19T11:31:15.802Z,5.08
2023-02-19T11:34:29.227Z,4.97
2023-02-19T11:37:15.108Z,5.08
2023-02-19T11:39:45.024Z,5.22
2023-02-19T11:42:32.325Z,5.52
2023-02-19T11:45:21.003Z,5.60
2023-02-19T11:47:54.893Z,5.53
2023-02-19T11:50:49.327Z,5.57
2023-02-19T11:53:25.894Z,5.71
2023-02-19T11:56:13.960Z,5.65
2023-02-19T11:58:59.516Z,5.60
2023-02-19T12:01:26.463Z,5.52
2023-02-19T12:03:52.459Z,5.45
2023-02-19T12:06:40.088Z,5.45
2023-02-19T12:09:23.410Z,5.60
2023-02-19T12:12:14.427Z,5.67
2023-02-19T12:14:52.058Z,5.71
2023-02-19T12:17:33.269Z,5.71
2023-02-19T12:20:18.171Z,5.70
2023-02-19T12:23:35.726Z,5.63
2023-02-19T12:26:06.836Z,5.48
2023-02-19T12:28:44.760Z,5.37
2023-02-19T12:31:58.575Z,5.29
2023-02-19T12:34:50.319Z,5.23
2023-02-19T12:37:44.634Z,5.31
2023-02-19T12:40:32.747Z,5.46
2023-02-19T12:43:20.696Z,5.63
2023-02-19T12:46:05.395Z,5.74
2023-02-19T12:48:52.995Z,5.75
2023-02-19T12:51:37.485Z,5.72
2023-02-19T12:54:06.665Z,5.67
2023-02-19T12:56:44.151Z,5.59
2023-02-19T12:59:35.824Z,5.55
2023-02-19T13:02:33.012Z,5.56
2023-02-19T13:05:03.550Z,5.51
2023-02-19T13:07:37.557Z,5.44
2023-02-19T13:10:33.522Z,5.35
2023-02-19T13:13:03.204Z,5.27
2023-02-19T13:15:43.568Z,5.24
2023-02-19T13:18:15.921Z,5.26
2023-02-19T13:20:42.660Z,5.28
2023-02-19T13:23:50.064Z,5.28
2023-02-19T13:26:25.505Z,5.21
2023-02-19T13:29:06.456Z,5.12
2023-02-19T13:31:52.453Z,5.01
2023-02-19T13:34:27.721Z,4.91
2023-02-19T13:36:54.047Z,4.85
2023-02-19T13:39:20.678Z,4.82
2023-02-19T13:41:51.135Z,4.89
2023-02-19T13:44:24.811Z,4.96
2023-02-19T13:46:51.037Z,4.99
2023-02-19T13:49:49.594Z,5.01
2023-02-19T13:52:18.451Z,5.05
2023-02-19T13:54:44.432Z,5.05
2023-02-19T13:57:22.804Z,5.05
2023-02-19T13:59:53.421Z,5.00
2023-02-19T14:02:22.623Z,4.93
2023-02-19T14:04:51.213Z,4.86
2023-02-19T14:07:17.125Z,4.82
2023-02-19T14:09:44.474Z,4.78
2023-02-19T14:12:15.694Z,4.76
2023-02-19T14:14:51.842Z,4.77
2023-02-19T14:17:26.685Z,4.82
2023-02-19T14:20:00.554Z,4.88
2023-02-19T14:22:57.157Z,4.95
2023-02-19T14:25:39.340Z,5.03
2023-02-19T14:28:32.801Z,5.04
2023-02-19T14:31:09.416Z,5.00
2023-02-19T14:33:39.587Z,4.96
2023-02-19T14:36:15.560Z,4.92
2023-02-19T14:38:59.453Z,4.87
2023-02-19T14:41:26.244Z,4.82
2023-02-19T14:43:53.373Z,4.78
2023-02-19T14:46:32.359Z,4.79
2023-02-19T14:49:00.685Z,4.76
2023-02-19T14:51:34.526Z,4.72
2023-02-19T14:54:02.339Z,4.74
2023-02-19T14:56:31.658Z,4.76
2023-02-19T14:59:08.916Z,4.77
2023-02-19T15:01:35.296Z,4.79
2023-02-19T15:04:01.824Z,4.80
2023-02-19T15:06:27.723Z,4.81
2023-02-19T15:08:57.853Z,4.80
2023-02-19T15:11:24.910Z,4.77
2023-02-19T15:13:52.844Z,4.74
2023-02-19T15:16:19.404Z,4.70
2023-02-19T15:18:45.858Z,4.67
2023-02-19T15:21:20.770Z,4.65
2023-02-19T15:23:46.678Z,4.63
2023-02-19T15:26:20.847Z,4.61
2023-02-19T15:28:46.729Z,4.59
2023-02-19T15:31:14.673Z,4.58
2023-02-19T15:33:48.730Z,4.55
2023-02-19T15:36:14.642Z,4.54
2023-02-19T15:38:40.657Z,4.53
2023-02-19T15:41:07.001Z,4.51
2023-02-19T15:43:44.799Z,4.49
2023-02-19T15:46:12.462Z,4.45
2023-02-19T15:48:44.182Z,4.38
2023-02-19T15:51:14.269Z,4.35
2023-02-19T15:53:43.962Z,4.32
2023-02-19T15:56:17.950Z,4.31
2023-02-19T15:58:51.990Z,4.30
2023-02-19T16:01:24.666Z,4.28
2023-02-19T16:03:53.365Z,4.25
2023-02-19T16:06:19.659Z,4.22
2023-02-19T16:08:51.776Z,4.20
2023-02-19T16:11:24.136Z,4.19
2023-02-19T16:13:50.719Z,4.18
2023-02-19T16:16:24.144Z,4.16
2023-02-19T16:18:50.467Z,4.14
2023-02-19T16:21:17.534Z,4.13
2023-02-19T16:23:43.922Z,4.12
2023-02-19T16:26:09.950Z,4.12
2023-02-19T16:28:37.210Z,4.09
2023-02-19T16:31:10.837Z,4.06
2023-02-19T16:33:44.188Z,4.06
2023-02-19T16:36:32.260Z,4.05
2023-02-19T16:39:00.116Z,4.04
2023-02-19T16:41:26.151Z,4.02
2023-02-19T16:43:52.076Z,3.99
2023-02-19T16:46:18.096Z,3.97
2023-02-19T16:48:44.121Z,3.95
2023-02-19T16:51:13.934Z,3.95
2023-02-19T16:53:39.876Z,3.91
2023-02-19T16:56:09.874Z,3.91
2023-02-19T16:58:37.143Z,3.88
2023-02-19T17:01:04.632Z,3.86
2023-02-19T17:03:30.581Z,3.83
2023-02-19T17:05:56.468Z,3.81
2023-02-19T17:08:30.846Z,3.78
2023-02-19T17:10:58.528Z,3.75
2023-02-19T17:13:24.437Z,3.73
2023-02-19T17:15:50.453Z,3.68
2023-02-19T17:18:16.542Z,3.64
2023-02-19T17:20:42.605Z,3.59
2023-02-19T17:23:08.862Z,3.56
2023-02-19T17:25:34.783Z,3.53
2023-02-19T17:28:00.777Z,3.50
2023-02-19T17:30:28.660Z,3.45
2023-02-19T17:32:54.674Z,3.41
2023-02-19T17:35:20.637Z,3.37
2023-02-19T17:37:46.645Z,3.31
2023-02-19T17:40:31.883Z,3.26
2023-02-19T17:42:59.048Z,3.22
2023-02-19T17:45:25.166Z,3.17
2023-02-19T17:47:51.197Z,3.12
2023-02-19T17:50:19.359Z,3.10
2023-02-19T17:52:45.297Z,3.08
2023-02-19T17:55:11.834Z,3.05
2023-02-19T17:57:37.725Z,3.04
2023-02-19T18:00:05.216Z,3.00
2023-02-19T18:02:38.698Z,2.98
2023-02-19T18:05:05.258Z,2.94
2023-02-19T18:07:31.190Z,2.92
2023-02-19T18:09:57.101Z,2.91
2023-02-19T18:12:25.252Z,2.87
2023-02-19T18:14:53.914Z,2.87
2023-02-19T18:17:20.061Z,2.84
2023-02-19T18:19:46.156Z,2.83
2023-02-19T18:22:12.098Z,2.80
2023-02-19T18:24:38.002Z,2.77
2023-02-19T18:27:03.970Z,2.73
2023-02-19T18:29:30.408Z,2.71
2023-02-19T18:31:56.500Z,2.68
2023-02-19T18:34:22.646Z,2.69
2023-02-19T18:36:48.730Z,2.66
2023-02-19T18:39:15.021Z,2.63
2023-02-19T18:41:40.999Z,2.62
2023-02-19T18:44:07.020Z,2.61
2023-02-19T18:46:33.182Z,2.60
2023-02-19T18:48:59.082Z,2.55
2023-02-19T18:51:25.014Z,2.52
2023-02-19T18:53:51.039Z,2.50
2023-02-19T18:56:17.170Z,2.48
2023-02-19T18:58:43.131Z,2.46
2023-02-19T19:01:09.213Z,2.46
2023-02-19T19:03:35.426Z,2.45
2023-02-19T19:06:01.471Z,2.41
2023-02-19T19:08:29.168Z,2.39
2023-02-19T19:10:56.516Z,2.37
2023-02-19T19:13:22.918Z,2.36
2023-02-19T19:15:50.102Z,2.33
2023-02-19T19:18:16.093Z,2.29
2023-02-19T19:20:42.007Z,2.24
2023-02-19T19:23:07.962Z,2.20
2023-02-19T19:25:33.975Z,2.18
2023-02-19T19:28:00.080Z,2.17
2023-02-19T19:30:26.079Z,2.17
2023-02-19T19:32:52.455Z,2.16
2023-02-19T19:35:18.886Z,2.14
2023-02-19T19:37:44.903Z,2.11
2023-02-19T19:40:11.576Z,2.10
2023-02-19T19:42:37.474Z,2.10
2023-02-19T19:45:04.777Z,2.11
2023-02-19T19:47:30.781Z,2.09
2023-02-19T19:49:56.665Z,2.10
2023-02-19T19:52:22.581Z,2.10
2023-02-19T19:54:53.239Z,2.10
2023-02-19T19:57:19.470Z,2.08
2023-02-19T19:59:50.423Z,2.06
2023-02-19T20:02:16.700Z,2.03
2023-02-19T20:04:42.737Z,1.99
2023-02-19T20:07:08.962Z,1.95
2023-02-19T20:09:34.885Z,1.90
2023-02-19T20:12:01.444Z,1.86
2023-02-19T20:14:27.427Z,1.83
2023-02-19T20:16:54.183Z,1.80
2023-02-19T20:19:20.221Z,1.77
2023-02-19T20:21:47.176Z,1.76
2023-02-19T20:24:15.191Z,1.73
2023-02-19T20:26:41.388Z,1.70
2023-02-19T20:29:09.729Z,1.67
2023-02-19T20:31:36.865Z,1.64
2023-02-19T20:34:03.029Z,1.63
2023-02-19T20:36:29.456Z,1.62
2023-02-19T20:38:55.565Z,1.60
2023-02-19T20:41:21.472Z,1.59
2023-02-19T20:43:47.450Z,1.58
2023-02-19T20:46:13.680Z,1.56
2023-02-19T20:48:39.897Z,1.55
2023-02-19T20:51:05.882Z,1.56
2023-02-19T20:53:31.832Z,1.56
2023-02-19T20:55:58.147Z,1.56
2023-02-19T20:58:24.194Z,1.55
2023-02-19T21:00:52.882Z,1.54
2023-02-19T21:03:19.082Z,1.53
2023-02-19T21:05:45.068Z,1.50
2023-02-19T21:08:11.259Z,1.49
2023-02-19T21:10:37.664Z,1.47
2023-02-19T21:13:03.571Z,1.45
2023-02-19T21:15:29.571Z,1.43
2023-02-19T21:17:55.479Z,1.44
2023-02-19T21:20:21.414Z,1.45
2023-02-19T21:22:47.376Z,1.45
2023-02-19T21:25:13.389Z,1.43
2023-02-19T21:27:39.294Z,1.42
2023-02-19T21:30:06.443Z,1.39
2023-02-19T21:32:32.600Z,1.38
2023-02-19T21:34:59.028Z,1.37
2023-02-19T21:37:24.963Z,1.37
2023-02-19T21:39:51.369Z,1.41
2023-02-19T21:42:17.271Z,1.41
2023-02-19T21:44:43.294Z,1.39
2023-02-19T21:47:10.934Z,1.37
2023-02-19T21:49:37.016Z,1.35
2023-02-19T21:52:03.008Z,1.32
2023-02-19T21:54:29.066Z,1.30
2023-02-19T21:56:55.302Z,1.28
2023-02-19T21:59:21.628Z,1.27
2023-02-19T22:01:47.549Z,1.25
2023-02-19T22:04:15.625Z,1.24
2023-02-19T22:06:41.842Z,1.24
2023-02-19T22:09:08.077Z,1.26
2023-02-19T22:11:34.216Z,1.27
2023-02-19T22:14:00.534Z,1.29
2023-02-19T22:16:27.521Z,1.30
2023-02-19T22:18:55.699Z,1.32
2023-02-19T22:21:22.571Z,1.33
2023-02-19T22:23:49.520Z,1.37
2023-02-19T22:26:22.946Z,1.39
2023-02-19T22:28:48.912Z,1.41
2023-02-19T22:31:19.384Z,1.39
2023-02-19T22:33:45.339Z,1.35
2023-02-19T22:36:25.054Z,1.30
2023-02-19T22:38:51.180Z,1.22
2023-02-19T22:41:17.413Z,1.20
2023-02-19T22:43:43.350Z,1.21
2023-02-19T22:46:10.954Z,1.21
2023-02-19T22:48:37.226Z,1.22
2023-02-19T22:51:03.218Z,1.24
2023-02-19T22:53:29.168Z,1.22
2023-02-19T22:55:55.058Z,1.22
2023-02-19T22:58:20.989Z,1.18
2023-02-19T23:00:47.024Z,1.18
2023-02-19T23:03:13.107Z,1.18
2023-02-19T23:05:39.058Z,1.22
2023-02-19T23:08:05.005Z,1.23
2023-02-19T23:10:31.133Z,1.28
2023-02-19T23:12:57.071Z,1.32
2023-02-19T23:15:23.182Z,1.34
2023-02-19T23:17:49.209Z,1.35
2023-02-19T23:20:15.130Z,1.32
2023-02-19T23:22:41.050Z,1.31
2023-02-19T23:25:07.315Z,1.30
2023-02-19T23:27:33.236Z,1.31
2023-02-19T23:29:59.226Z,1.32
2023-02-19T23:32:25.125Z,1.31
2023-02-19T23:34:51.092Z,1.32
2023-02-19T23:37:17.056Z,1.36
2023-02-19T23:39:43.004Z,1.41
2023-02-19T23:42:13.354Z,1.42
2023-02-19T23:44:39.285Z,1.42
2023-02-19T23:47:05.203Z,1.44
2023-02-19T23:49:31.094Z,1.44
2023-02-19T23:51:56.998Z,1.44
2023-02-19T23:54:22.957Z,1.45
2023-02-19T23:56:48.906Z,1.46
2023-02-19T23:59:15.090Z,1.46
